Taiwan Taoyuan International Airport
RCTP : now visible

Aeroporto :











RITROVATECI SU...

 
LOGIN :

Iscrizione | Disclaimer

   EN    FR    IT 

 









Sommario :    VFR   VFR Marginale   IFR   IFR Intensivo   IFR Molto Intensivo
Visibilità : 
Base nubi : 
>= 8 km
>= 3000ft
5 / 8 km
1000 / 3000 ft
1500m / 5 km
500 / 1000 ft
800 / 1500m
200 / 500 ft
< 800m
< 200 ft
Simboli :   Temporali  Nebbia  Neve Forte  Precipitazioni Forti  Vento > 20 kt






- Altitudine del aeroporto : 106 ft
- Codice IATA : TPE


RCTP - Taiwan Taoyuan International

ULTIMO METAR :
  • 010930Z 06019KT 9999 FEW012 BKN025 BKN035 17/13 Q1018 NOSIG RMK A3006

METARs OBSOLETI :
  • 010900Z 06019KT 9999 FEW012 BKN025 BKN035 17/13 Q1017 NOSIG RMK A3004
  • 010830Z 06018KT 9999 FEW012 BKN025 BKN035 17/13 Q1017 NOSIG RMK A3004
  • 010800Z 06020KT 9999 FEW012 BKN025 BKN035 17/13 Q1016 NOSIG RMK A3003
  • 010730Z 07019KT 9999 FEW012 BKN025 BKN035 17/13 Q1016 NOSIG RMK A3003
  • 010700Z 07015KT 9999 FEW012 BKN025 BKN035 17/14 Q1017 NOSIG RMK A3004

TAF TAF RCTP
Valido dal 01 a 06 ore il 02 a 12 ore UTC


010500Z 0106/0212 03015KT 9999 FEW012 BKN032
TEMPO 0106/0112 04020KT FEW010 BKN018 BKN040
TEMPO 0118/0124 06010KT FEW010 BKN020 BKN040
TEMPO 0206/0212 08010KT



MetMap, La meteo Aeronautica in un colpo d'occhio ! - Copyright ORBIFLY Dicembre 2007 - Disclaimer

ORBIFLY MET'MAP TEAM :

Programmazione e sviluppo : Alexandra Zaïnal
Concezione : Baudouin d'Aumeries
Aiuto per la programmazione : Marc-Olivier Méhu
Supporto tecnico e logistico : Manuel Goepfert
Aiuto per la traduzione : Arnaldo La Scala

Contatto : metmap@orbifly.com




FONTI E CREDITI :

   NOAA       Earth
Advisory